Corsicana, TX

6:33 PM CDT on August 29, 2016 (GMT -0500)
Carol Ave | | Change Station

Elev 460 ft 32.12 °N, 96.49 °W | Updated 8 minutes ago

Light Rain
Light Rain
78.2 °F
Feels Like 81 °F
N
2.0
Wind Variable Wind from SE
Gusts 8.0 mph

Today
High -- | Low -- °F
--% Chance of Precip.
Yesterday
High -- | Low -- °F
Precip. -- in
Pressure 29.98 in
Visibility 8.0 miles
Clouds Few 4700 ft
Scattered Clouds 6500 ft
Mostly Cloudy 11000 ft
Heat Index 81 °F
Dew Point 75 °F
Humidity 89%
Rainfall 0.08 in
Snow Depth Not available.
6:59 AM 7:53 PM
Waning Crescent, 6% visible
METAR KCRS 292253Z AUTO 12013G19KT 8SM -RA FEW047 SCT065 BKN110 29/24 A2999 RMK AO2 RAB45 SLP150 P0000 T02940239 TSNO
Pressure 29.98 in
Visibility 8.0 miles
Clouds Few 4700 ft
Scattered Clouds 6500 ft
Mostly Cloudy 11000 ft
Heat Index 81 °F
Dew Point 75 °F
Humidity 89%
Rainfall 0.08 in
Snow Depth Not available.
6:59 AM 7:53 PM
Waning Crescent, 6% visible
METAR KCRS 292253Z AUTO 12013G19KT 8SM -RA FEW047 SCT065 BKN110 29/24 A2999 RMK AO2 RAB45 SLP150 P0000 T02940239 TSNO
Tropical Depression Nine was centered about 170 miles west-southwest of Key West, Florida, as of late Monday morning. The depression may struggle a bit in the southern Gulf of Mexico before finally making a Gulf Coast landfall later this week with soaking rain and gusty winds.

This latest system was designated a tropical depression Sunday after a Hurricane Hunter reconnaissance mission finally found a sufficiently organized low-pressure center with collocated shower and thunderstorm activity.

10-Day Weather Forecast

Almanac

Astronomy

Aug. 29, 2016 Rise Set
Actual Time
Civil Twilight
Nautical Twilight
Astronomical Twilight
Moon
Length of Visible Light
Length of Day
Tomorrow will be .
, % of the Moon is Illuminated

Today's Extremes

State Highs State Lows

Community

WunderPhotos

Upload Photos

1,935,695 photos uploaded!

WunderBlog® & News

Nearby

Air Quality

  Air Quality AQ Index Pollutant
Not available.

Snow Depth

Station Depth Elevation

Earthquake Activity

City Distance Mag. Time & Date
Minimum magnitude displayed is 2.5.

Coastal Water Temperatures

Place Temperature

Stations

Nearby Weather Stations

Station Location Temp. Windchill Dew Point Humidity Wind Precip. Elev Updated Type
                   

Watches & Warnings

There are currently no watches in effect.